Disclaimer

Please do not use the information listed here in-flight or in-navigation, as they are not provided to us by the airports but are provided by volunteers, so they might be outdated.

Search


Regions


Airport information page

Radio informations:
MERIDA INFO - 126.9 MHz
Automatic Terminal Information Service (ATIS) - 127.9 MHz
MERIDA APP/TWR - 118.3 MHz

Airport informations:
Latitude: 20° 56' 13.13" N
Longitude: 089° 39' 27.62" W
Elevation: 38 feet - 12 meters
Operating hours: 24 hour operations
Operating agency: Military-civil joint use airport
Timezone: UTC-6(-5DT) - First Sunday in April to the last Saturday in October
Fuel: Jet A, without icing inhibitor.

100/130 MIL Spec, low lead, aviation gasoline (BLUE)

Runway information:
10/28 - 10499 x 151 feet< - >3200 x 46 meters
17/35 - 7546 x 151 feet< - >2300 x 46 meters

Recent METARs:
MMMD 191547Z 08006KT 7SM SCT015 27/20 A3008 RMK 8/100 CI
MMMD 191644Z 12008KT 7SM BKN018 29/20 A3006 RMK 8/100 CI
MMMD 191644Z 12008KT 7SM BKN018 29/20 A3006 RMK 8/100 CI

Airport on the map: